Time;durP1;ratioP1;P1;durP2;ratioP2;P2;SDS_P1;SDS_P2;PMS_P1;PMS_P2;Temp;Humidity;BMP_temperature;BMP_pressure;BME280_temperature;BME280_humidity;BME280_pressure;Samples;Min_cycle;Max_cycle;Signal;HPM_P1;HPM_P2
2023/09/01 00:00:00;;;;;;;;;;;;;;;15.94;72.95;99871.09;5044351;28;2369;-74
2023/09/01 00:02:52;;;;;;;;;;;;;;;15.92;72.92;99867.84;5043635;28;2331;-76
2023/09/01 00:05:44;;;;;;;;;;;;;;;15.90;73.03;99858.06;5050437;28;2471;-78
2023/09/01 00:08:36;;;;;;;;;;;;;;;15.89;72.96;99872.72;5054299;28;1733;-76
2023/09/01 00:11:28;;;;;;;;;;;;;;;15.89;72.97;99867.31;5048888;28;1720;-75
2023/09/01 00:14:20;;;;;;;;;;;;;;;15.88;72.98;99872.97;5049561;28;1704;-77
2023/09/01 00:17:12;;;;;;;;;;;;;;;15.87;72.84;99871.38;5049840;28;1688;-77
2023/09/01 00:20:04;;;;;;;;;;;;;;;15.85;72.97;99876.25;5049139;28;1910;-78
2023/09/01 00:22:56;;;;;;;;;;;;;;;15.84;72.91;99875.44;5050232;28;1730;-77
2023/09/01 00:25:48;;;;;;;;;;;;;;;15.84;72.85;99874.63;5057204;28;1955;-78
2023/09/01 00:28:40;;;;;;;;;;;;;;;15.82;72.96;99880.31;5050928;28;1990;-76
2023/09/01 00:31:32;;;;;;;;;;;;;;;15.82;72.77;99879.50;5049546;28;1783;-77
2023/09/01 00:34:24;;;;;;;;;;;;;;;15.81;72.84;99877.88;5048700;28;2317;-77
2023/09/01 00:37:16;;;;;;;;;;;;;;;15.80;72.84;99878.97;5046429;28;2379;-79
2023/09/01 00:40:08;;;;;;;;;;;;;;;15.78;72.80;99879.22;5042417;28;2894;-78
2023/09/01 00:43:00;;;;;;;;;;;;;;;15.78;72.63;99887.38;5045104;28;2342;-77
2023/09/01 00:45:52;;;;;;;;;;;;;;;15.77;72.78;99885.75;5044159;28;2368;-77
2023/09/01 00:48:44;;;;;;;;;;;;;;;15.77;72.65;99882.25;5044372;28;2245;-74
2023/09/01 00:51:36;;;;;;;;;;;;;;;15.76;72.73;99875.16;5045837;28;2218;-75
2023/09/01 00:54:29;;;;;;;;;;;;;;;15.74;72.64;99889.00;5047449;28;2590;-78
2023/09/01 00:57:21;;;;;;;;;;;;;;;15.76;72.63;99888.72;5050218;28;2226;-77
2023/09/01 01:00:13;;;;;;;;;;;;;;;15.73;72.64;99881.13;5046589;28;2262;-78
2023/09/01 01:03:05;;;;;;;;;;;;;;;15.72;72.69;99890.38;5041902;28;2301;-74
2023/09/01 01:05:58;;;;;;;;;;;;;;;15.72;72.66;99896.59;5046437;28;2308;-77
2023/09/01 01:08:49;;;;;;;;;;;;;;;15.71;72.54;99892.28;5045918;28;2018;-77
2023/09/01 01:11:41;;;;;;;;;;;;;;;15.69;72.54;99894.44;5049441;28;2110;-76
2023/09/01 01:14:33;;;;;;;;;;;;;;;15.69;72.50;99894.44;5048818;28;1844;-77
2023/09/01 01:17:25;;;;;;;;;;;;;;;15.67;72.53;99891.13;5051421;28;1694;-77
2023/09/01 01:20:18;;;;;;;;;;;;;;;15.67;72.51;99888.41;5046883;28;2234;-75
2023/09/01 01:23:09;;;;;;;;;;;;;;;15.65;72.51;99888.69;5047571;28;2249;-76
2023/09/01 01:26:02;;;;;;;;;;;;;;;15.64;72.42;99889.75;5048867;28;1818;-77
2023/09/01 01:28:53;;;;;;;;;;;;;;;15.65;72.17;99886.00;5050445;28;1646;-78
2023/09/01 01:31:45;;;;;;;;;;;;;;;15.64;72.42;99888.94;5044518;28;2022;-76
2023/09/01 01:34:37;;;;;;;;;;;;;;;15.63;72.46;99888.16;5049231;28;3644;-78
2023/09/01 01:37:30;;;;;;;;;;;;;;;15.64;72.28;99887.06;5047784;28;3723;-78
2023/09/01 01:40:21;;;;;;;;;;;;;;;15.62;72.33;99888.44;5047457;28;2526;-76
2023/09/01 01:43:13;;;;;;;;;;;;;;;15.61;72.30;99895.72;5050551;28;2253;-76
2023/09/01 01:46:06;;;;;;;;;;;;;;;15.60;72.24;99888.69;5045256;28;2210;-77
2023/09/01 01:48:57;;;;;;;;;;;;;;;15.60;72.30;99888.69;5046281;28;2183;-77
2023/09/01 01:51:49;;;;;;;;;;;;;;;15.59;72.28;99897.13;5043156;28;2269;-77
2023/09/01 01:54:41;;;;;;;;;;;;;;;15.58;72.33;99895.47;5040797;28;2377;-77
2023/09/01 01:57:33;;;;;;;;;;;;;;;15.57;72.27;99893.84;5047740;28;2408;-77
2023/09/01 02:00:26;;;;;;;;;;;;;;;15.56;72.15;99889.47;5043909;28;2273;-77
2023/09/01 02:03:18;;;;;;;;;;;;;;;15.58;72.10;99903.59;5043247;28;2451;-77
2023/09/01 02:06:10;;;;;;;;;;;;;;;15.56;72.08;99908.47;5043373;28;2274;-75
2023/09/01 02:09:03;;;;;;;;;;;;;;;15.55;72.19;99904.13;5045385;28;2261;-78
2023/09/01 02:11:54;;;;;;;;;;;;;;;15.54;72.20;99902.53;5042029;28;2344;-77
2023/09/01 02:14:45;;;;;;;;;;;;;;;15.52;72.06;99902.78;5048168;28;2313;-76
2023/09/01 02:17:37;;;;;;;;;;;;;;;15.51;72.07;99901.16;5045276;28;2294;-77
2023/09/01 02:20:30;;;;;;;;;;;;;;;15.50;72.08;99904.97;5045790;28;2300;-76
2023/09/01 02:23:21;;;;;;;;;;;;;;;15.49;72.09;99899.78;5047342;28;2183;-77
2023/09/01 02:26:13;;;;;;;;;;;;;;;15.49;72.10;99907.94;5050589;28;2217;-78
2023/09/01 02:29:06;;;;;;;;;;;;;;;15.48;72.14;99906.31;5044985;28;2354;-78
2023/09/01 02:31:58;;;;;;;;;;;;;;;15.47;72.11;99910.09;5047256;28;1655;-76
2023/09/01 02:34:49;;;;;;;;;;;;;;;15.45;72.10;99913.09;5049840;28;1725;-79
2023/09/01 02:37:42;;;;;;;;;;;;;;;15.47;71.91;99912.78;5048751;28;1753;-77
2023/09/01 02:40:33;;;;;;;;;;;;;;;15.45;71.93;99915.78;5048695;28;2605;-78
2023/09/01 02:43:25;;;;;;;;;;;;;;;15.44;71.98;99911.44;5051801;28;1659;-76
2023/09/01 02:46:17;;;;;;;;;;;;;;;15.44;71.95;99919.56;5053145;28;1666;-76
2023/09/01 02:49:09;;;;;;;;;;;;;;;15.44;71.88;99922.28;5053520;28;1745;-77
2023/09/01 02:52:02;;;;;;;;;;;;;;;15.42;71.84;99919.03;5052604;28;1864;-76
2023/09/01 02:54:55;;;;;;;;;;;;;;;15.41;71.83;99915.53;5052416;28;1786;-76
2023/09/01 02:57:46;;;;;;;;;;;;;;;15.40;71.90;99919.28;5050689;28;1793;-76
2023/09/01 03:00:38;;;;;;;;;;;;;;;15.40;71.90;99913.06;5046673;28;2335;-76
2023/09/01 03:03:29;;;;;;;;;;;;;;;15.40;71.79;99921.19;5047033;28;2326;-78
2023/09/01 03:06:21;;;;;;;;;;;;;;;15.40;71.68;99916.59;5049496;28;2395;-76
2023/09/01 03:09:14;;;;;;;;;;;;;;;15.40;71.65;99919.28;5042687;28;2317;-76
2023/09/01 03:12:05;;;;;;;;;;;;;;;15.39;71.69;99928.53;5048074;28;2675;-74
2023/09/01 03:14:58;;;;;;;;;;;;;;;15.39;71.66;99927.72;5049220;28;2340;-76
2023/09/01 03:17:49;;;;;;;;;;;;;;;15.38;71.70;99931.50;5045099;28;2511;-77
2023/09/01 03:20:40;;;;;;;;;;;;;;;15.36;71.66;99931.78;5052338;28;2380;-76
2023/09/01 03:23:33;;;;;;;;;;;;;;;15.36;71.54;99931.78;5049941;28;2370;-76
2023/09/01 03:26:24;;;;;;;;;;;;;;;15.33;71.69;99926.88;5052019;28;2533;-75
2023/09/01 03:29:16;;;;;;;;;;;;;;;15.34;71.59;99930.41;5051114;28;2165;-78
2023/09/01 03:32:10;;;;;;;;;;;;;;;15.36;71.46;99931.78;5047846;28;1752;-77
2023/09/01 03:35:02;;;;;;;;;;;;;;;15.36;71.46;99925.53;5051992;28;1692;-78
2023/09/01 03:37:53;;;;;;;;;;;;;;;15.34;71.60;99927.69;5055110;28;1931;-77
2023/09/01 03:40:46;;;;;;;;;;;;;;;15.32;71.52;99922.53;5048715;28;1976;-77
2023/09/01 03:43:37;;;;;;;;;;;;;;;15.32;71.50;99925.22;5050010;28;1760;-77
2023/09/01 03:46:29;;;;;;;;;;;;;;;15.33;71.38;99918.75;5050333;28;2196;-77
2023/09/01 03:49:21;;;;;;;;;;;;;;;15.32;71.40;99917.09;5054511;28;1809;-77
2023/09/01 03:52:13;;;;;;;;;;;;;;;15.32;71.39;99927.94;5050188;28;1789;-76
2023/09/01 03:55:05;;;;;;;;;;;;;;;15.29;71.39;99925.75;5050227;28;1674;-77
2023/09/01 03:57:59;;;;;;;;;;;;;;;15.28;71.46;99929.56;5046634;28;2689;-76
2023/09/01 04:00:51;;;;;;;;;;;;;;;15.30;71.39;99926.59;5047654;28;2256;-75
2023/09/01 04:03:44;;;;;;;;;;;;;;;15.29;71.40;99928.47;5049344;28;2254;-76
2023/09/01 04:06:35;;;;;;;;;;;;;;;15.28;71.38;99924.16;5044497;28;3723;-79
2023/09/01 04:09:27;;;;;;;;;;;;;;;15.29;71.38;99935.81;5048602;28;2330;-78
2023/09/01 04:12:18;;;;;;;;;;;;;;;15.29;71.26;99930.38;5047199;28;2595;-76
2023/09/01 04:15:11;;;;;;;;;;;;;;;15.27;71.39;99938.00;5045010;28;2350;-78
2023/09/01 04:18:03;;;;;;;;;;;;;;;15.26;71.33;99936.34;5046605;28;2261;-79
2023/09/01 04:20:54;;;;;;;;;;;;;;;15.24;71.33;99943.94;5048558;28;2305;-77
2023/09/01 04:23:46;;;;;;;;;;;;;;;15.21;71.28;99948.81;5044753;28;2783;-77
2023/09/01 04:26:37;;;;;;;;;;;;;;;15.22;71.31;99946.91;5045145;28;1870;-76
2023/09/01 04:29:30;;;;;;;;;;;;;;;15.22;71.32;99947.72;5045502;28;2435;-76
2023/09/01 04:32:21;;;;;;;;;;;;;;;15.20;71.27;99949.88;5041059;28;2357;-77
2023/09/01 04:35:14;;;;;;;;;;;;;;;15.22;71.24;99946.91;5050842;28;2350;-78
2023/09/01 04:38:05;;;;;;;;;;;;;;;15.23;71.20;99943.09;5045746;28;2286;-78
2023/09/01 04:40:57;;;;;;;;;;;;;;;15.21;71.21;99946.09;5049839;28;2352;-78
2023/09/01 04:43:48;;;;;;;;;;;;;;;15.19;71.32;99955.56;5049236;28;2200;-78
2023/09/01 04:46:40;;;;;;;;;;;;;;;15.18;71.20;99960.19;5051287;28;2385;-79
2023/09/01 04:49:31;;;;;;;;;;;;;;;15.16;71.31;99956.91;5048230;28;2330;-77
2023/09/01 04:52:23;;;;;;;;;;;;;;;15.17;71.24;99961.25;5043007;28;2325;-77
2023/09/01 04:55:15;;;;;;;;;;;;;;;15.15;71.19;99954.50;5057676;28;1717;-78
2023/09/01 04:58:07;;;;;;;;;;;;;;;15.13;71.18;99960.16;5046191;28;2398;-77
2023/09/01 05:00:59;;;;;;;;;;;;;;;15.15;71.11;99962.63;5044999;28;2984;-75
2023/09/01 05:03:51;;;;;;;;;;;;;;;15.15;71.11;99963.44;5054149;28;2203;-79
2023/09/01 05:06:43;;;;;;;;;;;;;;;15.14;71.22;99966.41;5045536;28;2979;-77
2023/09/01 05:09:34;;;;;;;;;;;;;;;15.12;71.15;99966.69;5049928;28;2661;-76
2023/09/01 05:12:26;;;;;;;;;;;;;;;15.10;71.19;99963.41;5048006;28;2257;-75
2023/09/01 05:15:19;;;;;;;;;;;;;;;15.09;71.19;99971.78;5046774;28;1903;-77
2023/09/01 05:18:10;;;;;;;;;;;;;;;15.07;71.15;99969.34;5051282;28;1789;-76
2023/09/01 05:21:03;;;;;;;;;;;;;;;15.09;71.10;99966.38;5046054;28;1933;-77
2023/09/01 05:23:54;;;;;;;;;;;;;;;15.06;71.05;99967.72;5048344;28;1686;-79
2023/09/01 05:26:47;;;;;;;;;;;;;;;15.05;71.30;99966.09;5051196;28;1651;-77
2023/09/01 05:29:38;;;;;;;;;;;;;;;15.06;71.12;99966.88;5047036;28;1750;-79
2023/09/01 05:32:30;;;;;;;;;;;;;;;15.05;71.21;99967.97;5049560;28;1686;-78
2023/09/01 05:35:23;;;;;;;;;;;;;;;15.05;71.12;99973.41;5054650;28;1761;-78
2023/09/01 05:38:14;;;;;;;;;;;;;;;15.04;71.12;99972.59;5046563;28;1749;-79
2023/09/01 05:41:09;;;;;;;;;;;;;;;15.02;71.24;99979.34;5046983;28;2151;-77
2023/09/01 05:44:00;;;;;;;;;;;;;;;15.00;71.19;99982.34;5043973;28;2433;-77
2023/09/01 05:46:51;;;;;;;;;;;;;;;15.02;71.09;99977.44;5044937;28;2646;-77
2023/09/01 05:49:43;;;;;;;;;;;;;;;15.01;71.13;99975.84;5047800;28;2341;-77
2023/09/01 05:52:34;;;;;;;;;;;;;;;15.01;71.09;99978.53;5042747;28;2388;-78
2023/09/01 05:55:26;;;;;;;;;;;;;;;14.98;71.09;99979.06;5045559;28;2325;-78
2023/09/01 05:58:17;;;;;;;;;;;;;;;14.96;71.10;99978.50;5046205;28;2002;-78
2023/09/01 06:01:09;;;;;;;;;;;;;;;14.98;71.04;99977.16;5051578;28;2110;-74
2023/09/01 06:04:02;;;;;;;;;;;;;;;14.96;71.09;99987.44;5059420;28;1607;-78
2023/09/01 06:06:55;;;;;;;;;;;;;;;14.95;71.18;99985.03;5062133;28;1757;-78
2023/09/01 06:09:47;;;;;;;;;;;;;;;14.93;71.27;99987.97;5065942;28;1501;-74
2023/09/01 06:12:40;;;;;;;;;;;;;;;14.92;71.18;99994.50;5055933;28;2650;-77
2023/09/01 06:15:31;;;;;;;;;;;;;;;14.92;71.09;99990.97;5044045;28;2996;-78
2023/09/01 06:18:24;;;;;;;;;;;;;;;14.90;71.14;99993.94;5041457;28;3801;-77
2023/09/01 06:21:16;;;;;;;;;;;;;;;14.91;71.18;99997.44;5057567;28;2266;-78
2023/09/01 06:24:07;;;;;;;;;;;;;;;14.90;71.17;99996.63;5048657;28;2376;-75
2023/09/01 06:27:00;;;;;;;;;;;;;;;14.89;71.19;99996.91;5047620;28;2301;-76
2023/09/01 06:29:52;;;;;;;;;;;;;;;14.89;71.26;99996.91;5049041;28;2471;-78
2023/09/01 06:32:43;;;;;;;;;;;;;;;14.87;71.03;99991.75;5049817;28;2304;-77
2023/09/01 06:35:36;;;;;;;;;;;;;;;14.87;71.20;99996.34;5057919;28;2253;-78
2023/09/01 06:38:28;;;;;;;;;;;;;;;14.87;71.02;99997.16;5045773;28;2543;-78
2023/09/01 06:41:22;;;;;;;;;;;;;;;14.85;71.11;99998.50;5042971;28;4089;-76
2023/09/01 06:44:14;;;;;;;;;;;;;;;14.84;71.02;99997.69;5050555;28;2708;-77
2023/09/01 06:47:06;;;;;;;;;;;;;;;14.83;71.07;99998.78;5048558;28;2965;-76
2023/09/01 06:49:58;;;;;;;;;;;;;;;14.82;71.05;100001.72;5054753;28;2543;-77
2023/09/01 06:52:50;;;;;;;;;;;;;;;14.82;71.29;100007.16;5052585;28;2274;-78
2023/09/01 06:55:43;;;;;;;;;;;;;;;14.82;71.10;100016.09;5049758;28;2389;-76
2023/09/01 06:58:34;;;;;;;;;;;;;;;14.82;71.10;100007.16;5046765;28;2497;-75
2023/09/01 07:01:27;;;;;;;;;;;;;;;14.81;71.08;100014.47;5050118;28;2099;-77
2023/09/01 07:04:20;;;;;;;;;;;;;;;14.81;71.04;100011.75;5047671;28;2629;-76
2023/09/01 07:07:12;;;;;;;;;;;;;;;14.82;71.27;100015.28;5052141;28;2403;-77
2023/09/01 07:10:04;;;;;;;;;;;;;;;14.81;71.16;100005.53;5048351;28;2412;-77
2023/09/01 07:12:56;;;;;;;;;;;;;;;14.81;71.17;100011.75;5049632;28;2336;-76
2023/09/01 07:15:47;;;;;;;;;;;;;;;14.80;71.20;100020.97;5053757;28;2257;-77
2023/09/01 07:18:40;;;;;;;;;;;;;;;14.80;71.20;100017.47;5050393;28;2249;-76
2023/09/01 07:21:32;;;;;;;;;;;;;;;14.79;71.22;100015.81;5053349;28;1952;-77
2023/09/01 07:24:24;;;;;;;;;;;;;;;14.79;71.14;100024.75;5053488;28;1699;-79
2023/09/01 07:27:16;;;;;;;;;;;;;;;14.77;71.25;100026.94;5050581;28;1511;-76
2023/09/01 07:30:08;;;;;;;;;;;;;;;14.77;71.15;100029.63;5051236;28;2094;-77
2023/09/01 07:33:00;;;;;;;;;;;;;;;14.77;71.00;100029.63;5053437;28;1493;-76
2023/09/01 07:35:52;;;;;;;;;;;;;;;14.77;71.08;100025.03;5053099;28;1631;-75
2023/09/01 07:38:43;;;;;;;;;;;;;;;14.77;71.12;100035.88;5052579;28;2074;-79
2023/09/01 07:41:35;;;;;;;;;;;;;;;14.76;71.10;100027.97;5050133;28;1966;-79
2023/09/01 07:44:27;;;;;;;;;;;;;;;14.76;70.98;100039.66;5051482;28;1796;-78
2023/09/01 07:47:18;;;;;;;;;;;;;;;14.77;71.19;100035.06;5049027;28;1857;-75
2023/09/01 07:50:10;;;;;;;;;;;;;;;14.76;71.05;100036.97;5050991;28;2075;-75
2023/09/01 07:53:03;;;;;;;;;;;;;;;14.77;71.08;100033.16;5056067;28;1719;-75
2023/09/01 07:55:54;;;;;;;;;;;;;;;14.78;71.07;100042.09;5051161;28;1757;-77
2023/09/01 07:58:45;;;;;;;;;;;;;;;14.76;70.96;100039.66;5042608;28;2368;-76
2023/09/01 08:01:37;;;;;;;;;;;;;;;14.75;71.01;100038.00;5046944;28;2280;-78
2023/09/01 08:04:29;;;;;;;;;;;;;;;14.76;70.96;100042.38;5051124;28;2249;-76
2023/09/01 08:07:21;;;;;;;;;;;;;;;14.79;71.05;100037.50;5047731;28;2337;-77
2023/09/01 08:10:13;;;;;;;;;;;;;;;14.79;70.94;100041.00;5047294;28;2424;-77
2023/09/01 08:13:05;;;;;;;;;;;;;;;14.77;71.08;100044.00;5051941;28;2131;-77
2023/09/01 08:15:57;;;;;;;;;;;;;;;14.77;70.97;100043.19;5047173;28;2257;-78
2023/09/01 08:18:49;;;;;;;;;;;;;;;14.77;71.04;100045.91;5045703;28;2887;-77
2023/09/01 08:21:41;;;;;;;;;;;;;;;14.77;71.09;100049.41;5047648;28;2286;-77
2023/09/01 08:24:33;;;;;;;;;;;;;;;14.78;71.12;100055.66;5052445;28;2337;-77
2023/09/01 08:27:25;;;;;;;;;;;;;;;14.77;70.94;100048.63;5048707;28;2330;-78
2023/09/01 08:30:17;;;;;;;;;;;;;;;14.79;70.93;100051.03;5048895;28;2348;-78
2023/09/01 08:33:09;;;;;;;;;;;;;;;14.79;71.05;100046.44;5051050;28;2436;-77
2023/09/01 08:36:01;;;;;;;;;;;;;;;14.80;71.03;100055.41;5046623;28;2274;-77
2023/09/01 08:38:52;;;;;;;;;;;;;;;14.79;71.05;100051.84;5056970;28;2082;-75
2023/09/01 08:41:44;;;;;;;;;;;;;;;14.81;71.13;100057.84;5046332;28;2261;-80
2023/09/01 08:44:36;;;;;;;;;;;;;;;14.82;71.01;100058.66;5042595;28;2340;-76
2023/09/01 08:47:28;;;;;;;;;;;;;;;14.82;70.95;100061.38;5049377;28;2033;-78
2023/09/01 08:50:21;;;;;;;;;;;;;;;14.83;71.10;100066.53;5049080;28;2361;-77
2023/09/01 08:53:13;;;;;;;;;;;;;;;14.51;70.93;100004.19;5047879;28;2321;-77
2023/09/01 08:56:05;;;;;;;;;;;;;;;14.84;71.05;100060.03;5052174;28;2345;-78
2023/09/01 08:58:57;;;;;;;;;;;;;;;14.83;71.08;100060.31;5048626;28;2302;-77
2023/09/01 09:01:49;;;;;;;;;;;;;;;14.85;71.12;100063.56;5053968;28;2329;-79
2023/09/01 09:04:40;;;;;;;;;;;;;;;14.85;70.97;100058.94;5057862;28;2404;-75
2023/09/01 09:07:32;;;;;;;;;;;;;;;14.86;71.03;100060.59;5058029;28;1508;-77
2023/09/01 09:10:24;;;;;;;;;;;;;;;14.85;70.97;100056.25;5058942;28;1487;-76
2023/09/01 09:13:16;;;;;;;;;;;;;;;14.86;71.00;100057.91;5050005;28;2928;-77
2023/09/01 09:16:08;;;;;;;;;;;;;;;14.88;71.00;100060.31;5056081;28;2674;-76
2023/09/01 09:18:59;;;;;;;;;;;;;;;14.88;71.12;100057.63;5048710;28;2282;-77
2023/09/01 09:21:51;;;;;;;;;;;;;;;14.89;71.17;100056.56;5055382;28;2280;-76
2023/09/01 09:24:43;;;;;;;;;;;;;;;14.91;71.00;100065.22;5047401;28;2344;-76
2023/09/01 09:27:35;;;;;;;;;;;;;;;14.91;71.11;100062.53;5046569;28;2271;-75
2023/09/01 09:30:27;;;;;;;;;;;;;;;14.91;71.10;100055.22;5055063;28;2153;-78
2023/09/01 09:33:18;;;;;;;;;;;;;;;14.92;71.08;100064.97;5055723;28;2340;-76
2023/09/01 09:36:11;;;;;;;;;;;;;;;14.93;71.12;100061.19;5050385;28;2578;-75
2023/09/01 09:39:03;;;;;;;;;;;;;;;14.93;71.07;100058.47;5051416;28;2270;-77
2023/09/01 09:41:55;;;;;;;;;;;;;;;14.94;71.04;100067.41;5049650;28;2453;-76
2023/09/01 09:44:49;;;;;;;;;;;;;;;14.94;71.13;100064.72;5044602;28;2377;-76
2023/09/01 09:47:41;;;;;;;;;;;;;;;14.94;71.20;100062.00;5045659;28;2947;-77
2023/09/01 09:50:33;;;;;;;;;;;;;;;14.94;71.11;100062.84;5048302;28;2294;-77
2023/09/01 09:53:24;;;;;;;;;;;;;;;14.95;71.24;100069.06;5060138;28;1757;-76
2023/09/01 09:56:16;;;;;;;;;;;;;;;14.96;71.28;100065.28;5059453;28;1658;-78
2023/09/01 09:59:08;;;;;;;;;;;;;;;14.95;71.26;100061.75;5049063;28;2535;-78
2023/09/01 10:02:00;;;;;;;;;;;;;;;14.96;71.32;100060.66;5052834;28;2096;-78
2023/09/01 10:04:52;;;;;;;;;;;;;;;14.98;71.24;100060.41;5052084;28;4990;-78
2023/09/01 10:07:44;;;;;;;;;;;;;;;14.99;71.30;100064.75;5060414;28;4354;-78
2023/09/01 10:10:36;;;;;;;;;;;;;;;15.00;71.31;100063.69;5055323;28;4138;-75
2023/09/01 10:13:28;;;;;;;;;;;;;;;15.01;71.37;100053.66;5053555;28;2353;-78
2023/09/01 10:16:20;;;;;;;;;;;;;;;15.01;71.40;100051.75;5059022;28;2361;-79
2023/09/01 10:19:13;;;;;;;;;;;;;;;15.03;71.31;100054.19;5057258;28;2332;-78
2023/09/01 10:22:05;;;;;;;;;;;;;;;15.03;71.41;100054.19;5052336;28;2699;-76
2023/09/01 10:24:56;;;;;;;;;;;;;;;15.05;71.41;100058.28;5057264;28;3710;-75
2023/09/01 10:27:48;;;;;;;;;;;;;;;14.97;71.38;100039.78;5055330;28;1532;-76
2023/09/01 10:30:40;;;;;;;;;;;;;;;15.06;71.35;100051.81;5059251;28;2150;-78
2023/09/01 10:33:31;;;;;;;;;;;;;;;15.08;71.41;100054.22;5062234;28;1687;-77
2023/09/01 10:36:23;;;;;;;;;;;;;;;15.08;71.46;100049.63;5059113;28;1593;-76
2023/09/01 10:39:15;;;;;;;;;;;;;;;15.11;71.41;100062.66;5070179;28;1540;-76
2023/09/01 10:42:07;;;;;;;;;;;;;;;15.11;71.50;100054.53;5063720;28;2197;-75
2023/09/01 10:44:59;;;;;;;;;;;;;;;15.12;71.42;100061.59;5056859;28;1621;-76
2023/09/01 10:47:52;;;;;;;;;;;;;;;15.13;71.46;100057.00;5066236;28;1611;-76
2023/09/01 10:50:45;;;;;;;;;;;;;;;15.15;71.53;100060.25;5056083;28;2212;-75
2023/09/01 10:53:37;;;;;;;;;;;;;;;15.16;71.52;100051.03;5068061;28;1600;-77
2023/09/01 10:56:29;;;;;;;;;;;;;;;15.18;71.46;100065.16;5066499;28;1407;-76
2023/09/01 10:59:21;;;;;;;;;;;;;;;15.17;71.50;100056.19;5058409;28;2461;-76
2023/09/01 11:02:13;;;;;;;;;;;;;;;15.19;71.65;100055.94;5059650;28;1973;-78
2023/09/01 11:05:05;;;;;;;;;;;;;;;15.21;71.67;100057.31;5060014;28;1680;-75
2023/09/01 11:07:56;;;;;;;;;;;;;;;15.21;71.64;100051.88;5054313;28;2274;-78
2023/09/01 11:10:47;;;;;;;;;;;;;;;15.23;71.66;100054.31;5053330;28;2348;-75
2023/09/01 11:13:40;;;;;;;;;;;;;;;15.24;71.43;100063.31;5052075;28;2273;-76
2023/09/01 11:16:32;;;;;;;;;;;;;;;15.25;71.64;100060.31;5052834;28;2634;-77
2023/09/01 11:19:24;;;;;;;;;;;;;;;15.27;71.61;100060.06;5061290;28;1585;-77
2023/09/01 11:22:16;;;;;;;;;;;;;;;15.28;71.71;100062.50;5057140;28;2269;-79
2023/09/01 11:25:08;;;;;;;;;;;;;;;15.29;71.57;100066.84;5059669;28;2281;-76
2023/09/01 11:28:00;;;;;;;;;;;;;;;15.31;71.66;100066.59;5057788;28;2452;-76
2023/09/01 11:30:52;;;;;;;;;;;;;;;15.32;71.77;100065.50;5054271;28;2389;-76
2023/09/01 11:33:44;;;;;;;;;;;;;;;15.34;71.67;100071.50;5059228;28;1536;-75
2023/09/01 11:36:36;;;;;;;;;;;;;;;15.34;71.74;100064.16;5051751;28;2228;-75
2023/09/01 11:39:28;;;;;;;;;;;;;;;15.36;71.67;100072.06;5060034;28;1865;-77
2023/09/01 11:42:20;;;;;;;;;;;;;;;15.36;71.73;100070.16;5056505;28;2292;-78
2023/09/01 11:45:12;;;;;;;;;;;;;;;15.38;71.79;100070.72;5059305;28;2206;-77
2023/09/01 11:48:04;;;;;;;;;;;;;;;15.40;71.88;100073.16;5056693;28;1556;-78
2023/09/01 11:50:55;;;;;;;;;;;;;;;15.40;71.84;100068.53;5054716;28;2236;-79
2023/09/01 11:53:47;;;;;;;;;;;;;;;15.42;71.91;100073.72;5062838;28;1587;-77
2023/09/01 11:56:39;;;;;;;;;;;;;;;15.44;71.88;100071.53;5063639;28;1909;-77
2023/09/01 11:59:31;;;;;;;;;;;;;;;15.45;71.90;100076.72;5059980;28;1446;-78
2023/09/01 12:02:23;;;;;;;;;;;;;;;15.46;71.95;100080.22;5045646;28;2391;-78
2023/09/01 12:05:14;;;;;;;;;;;;;;;15.48;72.05;100071.84;5059571;28;1505;-75
2023/09/01 12:08:06;;;;;;;;;;;;;;;15.50;72.05;100077.81;5052771;28;2285;-76
2023/09/01 12:10:58;;;;;;;;;;;;;;;15.51;71.98;100077.56;5057162;28;2040;-76
2023/09/01 12:13:50;;;;;;;;;;;;;;;15.52;71.97;100084.59;5053311;28;2329;-77
2023/09/01 12:16:42;;;;;;;;;;;;;;;15.56;71.54;100082.16;5045658;28;4351;-72
2023/09/01 12:19:34;;;;;;;;;;;;;;;15.63;71.39;100083.56;5057956;28;1857;-75
2023/09/01 12:22:26;;;;;;;;;;;;;;;15.61;71.37;100079.50;5060960;28;2049;-76
2023/09/01 12:25:18;;;;;;;;;;;;;;;15.63;71.20;100078.16;5044163;28;5180;-77
2023/09/01 12:28:10;;;;;;;;;;;;;;;15.63;71.21;100083.56;5046995;28;3900;-77
2023/09/01 12:31:02;;;;;;;;;;;;;;;15.64;71.34;100068.91;5044106;28;3751;-76
2023/09/01 12:33:54;;;;;;;;;;;;;;;15.67;71.21;100078.44;5048182;28;2108;-76
2023/09/01 12:36:49;;;;;;;;;;;;;;;15.68;71.32;100077.41;5049350;28;1654;-77
2023/09/01 12:39:40;;;;;;;;;;;;;;;15.70;71.40;100077.94;5050761;28;1830;-75
2023/09/01 12:42:32;;;;;;;;;;;;;;;15.71;71.49;100076.06;5047182;28;3078;-77
2023/09/01 12:45:24;;;;;;;;;;;;;;;15.72;71.56;100061.38;5046777;28;5191;-76
2023/09/01 12:48:16;;;;;;;;;;;;;;;16.08;66.38;100065.03;5050504;28;3996;-78
2023/09/01 12:51:08;;;;;;;;;;;;;;;16.69;66.50;100064.28;5051681;28;3849;-78
2023/09/01 12:54:00;;;;;;;;;;;;;;;17.35;62.23;100061.50;5058249;28;2338;-74
2023/09/01 12:56:52;;;;;;;;;;;;;;;17.02;63.92;100065.66;5051769;28;1734;-78
2023/09/01 12:59:44;;;;;;;;;;;;;;;16.72;65.26;100074.63;5047031;28;2190;-76
2023/09/01 13:02:36;;;;;;;;;;;;;;;16.59;65.90;100073.28;5048878;28;2302;-76
2023/09/01 13:05:28;;;;;;;;;;;;;;;16.52;66.44;100072.72;5047247;28;2380;-75
2023/09/01 13:08:20;;;;;;;;;;;;;;;16.48;66.83;100074.34;5047538;28;2037;-74
2023/09/01 13:11:14;;;;;;;;;;;;;;;16.44;67.24;100081.38;5049580;28;1743;-74
2023/09/01 13:14:06;;;;;;;;;;;;;;;16.41;67.51;100088.19;5049310;28;2017;-79
2023/09/01 13:16:58;;;;;;;;;;;;;;;16.39;67.69;100076.78;5048767;28;1816;-77
2023/09/01 13:19:50;;;;;;;;;;;;;;;16.39;67.82;100075.97;5049215;28;1701;-76
2023/09/01 13:22:42;;;;;;;;;;;;;;;16.37;68.32;100078.94;5049294;28;1909;-77
2023/09/01 13:25:34;;;;;;;;;;;;;;;16.37;68.33;100076.22;5044787;28;2292;-78
2023/09/01 13:28:26;;;;;;;;;;;;;;;16.37;68.49;100076.22;5046030;28;2274;-77
2023/09/01 13:31:18;;;;;;;;;;;;;;;16.38;68.79;100074.31;5049045;28;2370;-78
2023/09/01 13:34:10;;;;;;;;;;;;;;;16.38;69.03;100075.13;5049096;28;2342;-77
2023/09/01 13:37:02;;;;;;;;;;;;;;;16.38;69.04;100069.69;5046099;28;2378;-77
2023/09/01 13:39:58;;;;;;;;;;;;;;;16.39;69.17;100070.53;5047600;28;3094;-77
2023/09/01 13:42:49;;;;;;;;;;;;;;;16.41;69.34;100082.75;5048893;28;1898;-77
2023/09/01 13:45:41;;;;;;;;;;;;;;;16.40;69.47;100072.97;5062074;28;1524;-77
2023/09/01 13:48:33;;;;;;;;;;;;;;;16.41;69.55;100068.34;5057796;28;1562;-76
2023/09/01 13:51:25;;;;;;;;;;;;;;;16.43;69.69;100079.78;5045139;28;1992;-78
2023/09/01 13:54:17;;;;;;;;;;;;;;;16.42;69.71;100076.25;5051498;28;1771;-76
2023/09/01 13:57:10;;;;;;;;;;;;;;;16.44;69.94;100070.53;5050792;28;1638;-76
2023/09/01 14:00:02;;;;;;;;;;;;;;;16.46;69.92;100065.63;5053097;28;2181;-77
2023/09/01 14:02:54;;;;;;;;;;;;;;;16.47;69.99;100072.69;5048392;28;2049;-76
2023/09/01 14:05:46;;;;;;;;;;;;;;;16.48;70.07;100077.06;5047995;28;1892;-78
2023/09/01 14:08:38;;;;;;;;;;;;;;;16.50;70.11;100077.59;5049646;28;1945;-77
2023/09/01 14:11:30;;;;;;;;;;;;;;;16.50;70.20;100075.72;5055572;28;4676;-78
2023/09/01 14:14:22;;;;;;;;;;;;;;;16.52;70.32;100078.16;5056858;28;4199;-75
2023/09/01 14:17:14;;;;;;;;;;;;;;;16.54;70.44;100075.97;5053640;28;4134;-77
2023/09/01 14:20:06;;;;;;;;;;;;;;;16.54;70.49;100076.78;5054600;28;2161;-78
2023/09/01 14:22:58;;;;;;;;;;;;;;;16.56;70.55;100074.63;5064634;28;1894;-79
2023/09/01 14:25:50;;;;;;;;;;;;;;;16.58;70.49;100083.31;5062548;28;1493;-78
2023/09/01 14:28:42;;;;;;;;;;;;;;;16.60;70.76;100076.81;5059388;28;2169;-77
2023/09/01 14:31:34;;;;;;;;;;;;;;;16.61;70.69;100083.88;5056703;28;1564;-76
2023/09/01 14:34:25;;;;;;;;;;;;;;;16.63;70.77;100071.63;5056177;28;1470;-79
2023/09/01 14:37:17;;;;;;;;;;;;;;;16.65;70.87;100074.06;5058214;28;2138;-77
2023/09/01 14:40:09;;;;;;;;;;;;;;;16.66;70.81;100076.53;5066465;28;1506;-76
2023/09/01 14:43:01;;;;;;;;;;;;;;;16.68;70.95;100070.84;5065154;28;1906;-76
2023/09/01 14:45:51;;;;;;;;;;;;;;;16.68;70.90;100066.22;5063040;28;1469;-77
2023/09/01 14:48:43;;;;;;;;;;;;;;;16.71;70.92;100073.81;5066779;28;2334;-76
2023/09/01 14:51:35;;;;;;;;;;;;;;;16.73;71.10;100068.09;5065822;28;923;-76
2023/09/01 14:54:27;;;;;;;;;;;;;;;16.75;71.21;100074.09;5068958;28;1442;-73
2023/09/01 14:57:21;;;;;;;;;;;;;;;16.76;71.09;100071.09;5061012;28;2111;-77